Hitachimaru — JD2063 — position and weather

sailwx.info

Track history (hours):
 
Tides and Currents Weather Stations Pressure Air Temp Water Temp Dewpoint Dewpoint Depression Visibility Wind Speed Wind Dir Waves Ship Positions

Hitachimaru

Last reported at 2014-Jul-23 16:31 UTC. Time now 2014-Jul-24 10:42 UTC.
Position N 34°58' E 139°28'.

Length 83 m; draft 4.5 m.

Type: Cargo ship. MMSI: 431301756.

Date/timePositionNaut miles runAvg speedWind from/ knotsBaromVisibWave heightAir tempDewpointWater temp
2014-Jul-23 16:31N 34°58' E 139°28'1010.5
2014-Jul-23 15:33N 35°04' E 139°37'1111.4
2014-Jul-23 14:33N 35°13' E 139°46'1111.0
2014-Jul-23 13:33N 35°23' E 139°43'7 6.9
2014-Jul-23 12:33N 35°22' E 139°51'0 0.2
2014-Jul-23 11:32N 35°22' E 139°51'0 0.0
2014-Jul-23 10:32N 35°22' E 139°51'0 0.0
2014-Jul-23 09:32N 35°22' E 139°51'0 0.0
2014-Jul-23 08:31N 35°22' E 139°51'0 0.0
2014-Jul-23 07:31N 35°22' E 139°51'0 0.0
2014-Jul-23 06:31N 35°22' E 139°51'0 0.0
2014-Jul-23 05:28N 35°22' E 139°51'0 0.0
2014-Jul-23 04:28N 35°22' E 139°51'0 0.0
2014-Jul-23 03:31N 35°22' E 139°51'0 0.0
2014-Jul-23 02:31N 35°22' E 139°51'0 0.2
2014-Jul-23 01:34N 35°21' E 139°51'2 1.9
2014-Jul-23 00:31N 35°23' E 139°49'0 0.0
2014-Jul-22 23:31N 35°23' E 139°49'0 0.1
2014-Jul-22 22:31N 35°23' E 139°49'0 0.0
2014-Jul-22 21:31N 35°23' E 139°49'0 0.0
2014-Jul-22 20:31N 35°23' E 139°49'0 0.0
2014-Jul-22 19:31N 35°23' E 139°49'0 0.0
2014-Jul-22 18:31N 35°23' E 139°49'0 0.0
2014-Jul-22 17:31N 35°23' E 139°49'0 0.0
2014-Jul-22 16:31N 35°23' E 139°49'0 0.0
2014-Jul-22 15:31N 35°23' E 139°49'0 0.0
2014-Jul-22 14:31N 35°23' E 139°49'0 0.0
2014-Jul-22 13:31N 35°23' E 139°49'0 0.0
2014-Jul-22 12:31N 35°23' E 139°49'0 0.0
2014-Jul-22 11:31N 35°23' E 139°49'0 0.0
2014-Jul-22 10:31N 35°23' E 139°49'0 0.0
2014-Jul-22 09:31N 35°23' E 139°49'0 0.0
2014-Jul-22 08:31N 35°23' E 139°49'7 6.9
2014-Jul-22 07:33N 35°29' E 139°51'1111.3
2014-Jul-22 06:33N 35°39' E 139°58'3 2.7
2014-Jul-22 05:33N 35°41' E 139°57'0 0.0
2014-Jul-22 04:31N 35°41' E 139°57'0 0.0
2014-Jul-22 03:28N 35°41' E 139°57'0 0.0
2014-Jul-22 02:28N 35°41' E 139°57'0 0.0
2014-Jul-22 01:31N 35°41' E 139°57'0 0.0
2014-Jul-22 00:33N 35°41' E 139°57'4 4.2
2014-Jul-21 23:33N 35°37' E 139°58'0 0.1
2014-Jul-21 22:33N 35°37' E 139°58'3 3.2
2014-Jul-21 21:33N 35°40' E 139°57'0 0.2
2014-Jul-21 20:25N 35°40' E 139°57'0 0.0
2014-Jul-21 20:13N 35°40' E 139°57'0 0.0
2014-Jul-21 19:31N 35°40' E 139°57'0 0.0
2014-Jul-21 18:34N 35°40' E 139°57'0 0.0
2014-Jul-21 17:18N 35°40' E 139°57'0 0.0
2014-Jul-21 16:30N 35°40' E 139°57'0 0.0
2014-Jul-21 15:33N 35°40' E 139°57'4 3.5
2014-Jul-21 14:32N 35°37' E 139°58'0 0.0
2014-Jul-21 13:29N 35°37' E 139°58'0 0.0
2014-Jul-21 12:29N 35°37' E 139°58'0 0.0
2014-Jul-21 11:32N 35°37' E 139°58'0 0.0
2014-Jul-21 10:29N 35°37' E 139°58'7 8.1
2014-Jul-21 09:33N 35°30' E 139°53'1211.8
2014-Jul-21 08:33N 35°21' E 139°45'1110.8
2014-Jul-21 07:33N 35°10' E 139°46'1211.8
2014-Jul-21 06:33N 35°00' E 139°38'1313.2
2014-Jul-21 05:33N 34°53' E 139°25'22510.0
2014-Jul-20 07:04N 33°58' E 135°00'711.7
2014-Jul-20 06:28N 34°05' E 134°60'1011.5
2014-Jul-20 05:33N 34°16' E 134°59'1110.3
2014-Jul-20 04:26N 34°26' E 135°05'1011.8
2014-Jul-20 03:33N 34°32' E 135°15'10 9.9
2014-Jul-20 02:33N 34°35' E 135°27'1 0.1
2014-Jul-19 15:33N 34°34' E 135°27'0 0.1
2014-Jul-19 13:17N 34°34' E 135°27'0 0.1
2014-Jul-19 06:32N 34°34' E 135°27'1 0.2
2014-Jul-19 01:28N 34°35' E 135°28'0 0.0
2014-Jul-19 00:04N 34°35' E 135°28'0 0.1
2014-Jul-18 23:22N 34°35' E 135°28'0 0.0
2014-Jul-18 22:08N 34°35' E 135°28'2 2.7
2014-Jul-18 21:33N 34°34' E 135°27'0 0.0
2014-Jul-18 16:33N 34°34' E 135°27'9 9.3
2014-Jul-18 15:33N 34°35' E 135°16'1211.9
2014-Jul-18 14:34N 34°37' E 135°01'1111.1
2014-Jul-18 13:34N 34°38' E 134°48'11 0.2
2014-Jul-16 12:28N 34°37' E 135°01'1011.4
2014-Jul-16 11:33N 34°27' E 135°03'1212.4
2014-Jul-16 10:33N 34°15' E 134°59'1211.7
2014-Jul-16 09:32N 34°03' E 135°01'223 9.7
2014-Jul-15 10:29N 34°55' E 139°24'1010.8
2014-Jul-15 09:33N 35°02' E 139°33'1211.5
2014-Jul-15 08:33N 35°09' E 139°44'9 9.3
2014-Jul-15 07:33N 35°19' E 139°43'10 9.9
2014-Jul-15 06:33N 35°28' E 139°48'2 1.5
2014-Jul-15 05:33N 35°29' E 139°49'8 7.7
2014-Jul-15 04:33N 35°22' E 139°51'0 0.0
2014-Jul-15 03:31N 35°22' E 139°51'0 0.0
2014-Jul-15 02:31N 35°22' E 139°51'0 0.0
2014-Jul-15 01:31N 35°22' E 139°51'0 0.0
2014-Jul-15 00:31N 35°22' E 139°51'0 0.0
2014-Jul-14 23:31N 35°22' E 139°51'0 0.0
2014-Jul-14 22:31N 35°22' E 139°51'0 0.0
2014-Jul-14 21:31N 35°22' E 139°51'0 0.0
2014-Jul-14 20:31N 35°22' E 139°51'0 0.0
2014-Jul-14 19:31N 35°22' E 139°51'0 0.0
2014-Jul-14 18:31N 35°22' E 139°51'0 0.0
2014-Jul-14 17:33N 35°22' E 139°51'0 0.0
2014-Jul-14 16:33N 35°22' E 139°51'0 0.0
2014-Jul-14 15:33N 35°22' E 139°51'0 0.0
2014-Jul-14 14:33N 35°22' E 139°51'0 0.0
2014-Jul-14 13:30N 35°22' E 139°51'0 0.0
2014-Jul-14 12:33N 35°22' E 139°51'2 2.1
2014-Jul-14 11:33N 35°23' E 139°49'0 0.1
2014-Jul-14 10:33N 35°23' E 139°49'0 0.0
2014-Jul-14 09:33N 35°23' E 139°49'0 0.0
2014-Jul-14 08:33N 35°23' E 139°49'0 0.0
2014-Jul-14 07:33N 35°23' E 139°49'0 0.0
2014-Jul-14 06:33N 35°23' E 139°49'0 0.0
2014-Jul-14 05:33N 35°23' E 139°49'0 0.0
2014-Jul-14 04:33N 35°23' E 139°49'0 0.0
2014-Jul-14 03:33N 35°23' E 139°49'0 0.0
2014-Jul-14 02:33N 35°23' E 139°49'0 0.0
2014-Jul-14 01:30N 35°23' E 139°49'0 0.0
2014-Jul-14 00:30N 35°23' E 139°49'0 0.0
2014-Jul-13 23:30N 35°23' E 139°49'0 0.0
2014-Jul-13 22:33N 35°23' E 139°49'0 0.0
2014-Jul-13 21:30N 35°23' E 139°49'0 0.0
2014-Jul-13 20:33N 35°23' E 139°49'0 0.0
2014-Jul-13 19:33N 35°23' E 139°49'0 0.0
2014-Jul-13 18:31N 35°23' E 139°49'0 0.0
2014-Jul-13 17:31N 35°23' E 139°49'0 0.0
2014-Jul-13 16:33N 35°23' E 139°49'  
Track history (hours):
 
Tides and Currents Weather Stations Pressure Air Temp Water Temp Dewpoint Dewpoint Depression Visibility Wind Speed Wind Dir Waves Ship Positions

Hitachimaru

Last reported at 2014-Jul-23 16:31 UTC. Time now 2014-Jul-24 10:42 UTC.
Position N 34°58' E 139°28'.

Length 83 m; draft 4.5 m.

Type: Cargo ship. MMSI: 431301756.

Date/timePositionNaut miles runAvg speedWind from/ knotsBaromVisibWave heightAir tempDewpointWater temp
2014-Jul-23 16:31N 34°58' E 139°28'1010.5
2014-Jul-23 15:33N 35°04' E 139°37'1111.4
2014-Jul-23 14:33N 35°13' E 139°46'1111.0
2014-Jul-23 13:33N 35°23' E 139°43'7 6.9
2014-Jul-23 12:33N 35°22' E 139°51'0 0.2
2014-Jul-23 11:32N 35°22' E 139°51'0 0.0
2014-Jul-23 10:32N 35°22' E 139°51'0 0.0
2014-Jul-23 09:32N 35°22' E 139°51'0 0.0
2014-Jul-23 08:31N 35°22' E 139°51'0 0.0
2014-Jul-23 07:31N 35°22' E 139°51'0 0.0
2014-Jul-23 06:31N 35°22' E 139°51'0 0.0
2014-Jul-23 05:28N 35°22' E 139°51'0 0.0
2014-Jul-23 04:28N 35°22' E 139°51'0 0.0
2014-Jul-23 03:31N 35°22' E 139°51'0 0.0
2014-Jul-23 02:31N 35°22' E 139°51'0 0.2
2014-Jul-23 01:34N 35°21' E 139°51'2 1.9
2014-Jul-23 00:31N 35°23' E 139°49'0 0.0
2014-Jul-22 23:31N 35°23' E 139°49'0 0.1
2014-Jul-22 22:31N 35°23' E 139°49'0 0.0
2014-Jul-22 21:31N 35°23' E 139°49'0 0.0
2014-Jul-22 20:31N 35°23' E 139°49'0 0.0
2014-Jul-22 19:31N 35°23' E 139°49'0 0.0
2014-Jul-22 18:31N 35°23' E 139°49'0 0.0
2014-Jul-22 17:31N 35°23' E 139°49'0 0.0
2014-Jul-22 16:31N 35°23' E 139°49'0 0.0
2014-Jul-22 15:31N 35°23' E 139°49'0 0.0
2014-Jul-22 14:31N 35°23' E 139°49'0 0.0
2014-Jul-22 13:31N 35°23' E 139°49'0 0.0
2014-Jul-22 12:31N 35°23' E 139°49'0 0.0
2014-Jul-22 11:31N 35°23' E 139°49'0 0.0
2014-Jul-22 10:31N 35°23' E 139°49'0 0.0
2014-Jul-22 09:31N 35°23' E 139°49'0 0.0
2014-Jul-22 08:31N 35°23' E 139°49'7 6.9
2014-Jul-22 07:33N 35°29' E 139°51'1111.3
2014-Jul-22 06:33N 35°39' E 139°58'3 2.7
2014-Jul-22 05:33N 35°41' E 139°57'0 0.0
2014-Jul-22 04:31N 35°41' E 139°57'0 0.0
2014-Jul-22 03:28N 35°41' E 139°57'0 0.0
2014-Jul-22 02:28N 35°41' E 139°57'0 0.0
2014-Jul-22 01:31N 35°41' E 139°57'0 0.0
2014-Jul-22 00:33N 35°41' E 139°57'4 4.2
2014-Jul-21 23:33N 35°37' E 139°58'0 0.1
2014-Jul-21 22:33N 35°37' E 139°58'3 3.2
2014-Jul-21 21:33N 35°40' E 139°57'0 0.2
2014-Jul-21 20:25N 35°40' E 139°57'0 0.0
2014-Jul-21 20:13N 35°40' E 139°57'0 0.0
2014-Jul-21 19:31N 35°40' E 139°57'0 0.0
2014-Jul-21 18:34N 35°40' E 139°57'0 0.0
2014-Jul-21 17:18N 35°40' E 139°57'0 0.0
2014-Jul-21 16:30N 35°40' E 139°57'0 0.0
2014-Jul-21 15:33N 35°40' E 139°57'4 3.5
2014-Jul-21 14:32N 35°37' E 139°58'0 0.0
2014-Jul-21 13:29N 35°37' E 139°58'0 0.0
2014-Jul-21 12:29N 35°37' E 139°58'0 0.0
2014-Jul-21 11:32N 35°37' E 139°58'0 0.0
2014-Jul-21 10:29N 35°37' E 139°58'7 8.1
2014-Jul-21 09:33N 35°30' E 139°53'1211.8
2014-Jul-21 08:33N 35°21' E 139°45'1110.8
2014-Jul-21 07:33N 35°10' E 139°46'1211.8
2014-Jul-21 06:33N 35°00' E 139°38'1313.2
2014-Jul-21 05:33N 34°53' E 139°25'22510.0
2014-Jul-20 07:04N 33°58' E 135°00'711.7
2014-Jul-20 06:28N 34°05' E 134°60'1011.5
2014-Jul-20 05:33N 34°16' E 134°59'1110.3
2014-Jul-20 04:26N 34°26' E 135°05'1011.8
2014-Jul-20 03:33N 34°32' E 135°15'10 9.9
2014-Jul-20 02:33N 34°35' E 135°27'1 0.1
2014-Jul-19 15:33N 34°34' E 135°27'0 0.1
2014-Jul-19 13:17N 34°34' E 135°27'0 0.1
2014-Jul-19 06:32N 34°34' E 135°27'1 0.2
2014-Jul-19 01:28N 34°35' E 135°28'0 0.0
2014-Jul-19 00:04N 34°35' E 135°28'0 0.1
2014-Jul-18 23:22N 34°35' E 135°28'0 0.0
2014-Jul-18 22:08N 34°35' E 135°28'2 2.7
2014-Jul-18 21:33N 34°34' E 135°27'0 0.0
2014-Jul-18 16:33N 34°34' E 135°27'9 9.3
2014-Jul-18 15:33N 34°35' E 135°16'1211.9
2014-Jul-18 14:34N 34°37' E 135°01'1111.1
2014-Jul-18 13:34N 34°38' E 134°48'11 0.2
2014-Jul-16 12:28N 34°37' E 135°01'1011.4
2014-Jul-16 11:33N 34°27' E 135°03'1212.4
2014-Jul-16 10:33N 34°15' E 134°59'1211.7
2014-Jul-16 09:32N 34°03' E 135°01'223 9.7
2014-Jul-15 10:29N 34°55' E 139°24'1010.8
2014-Jul-15 09:33N 35°02' E 139°33'1211.5
2014-Jul-15 08:33N 35°09' E 139°44'9 9.3
2014-Jul-15 07:33N 35°19' E 139°43'10 9.9
2014-Jul-15 06:33N 35°28' E 139°48'2 1.5
2014-Jul-15 05:33N 35°29' E 139°49'8 7.7
2014-Jul-15 04:33N 35°22' E 139°51'0 0.0
2014-Jul-15 03:31N 35°22' E 139°51'0 0.0
2014-Jul-15 02:31N 35°22' E 139°51'0 0.0
2014-Jul-15 01:31N 35°22' E 139°51'0 0.0
2014-Jul-15 00:31N 35°22' E 139°51'0 0.0
2014-Jul-14 23:31N 35°22' E 139°51'0 0.0
2014-Jul-14 22:31N 35°22' E 139°51'0 0.0
2014-Jul-14 21:31N 35°22' E 139°51'0 0.0
2014-Jul-14 20:31N 35°22' E 139°51'0 0.0
2014-Jul-14 19:31N 35°22' E 139°51'0 0.0
2014-Jul-14 18:31N 35°22' E 139°51'0 0.0
2014-Jul-14 17:33N 35°22' E 139°51'0 0.0
2014-Jul-14 16:33N 35°22' E 139°51'0 0.0
2014-Jul-14 15:33N 35°22' E 139°51'0 0.0
2014-Jul-14 14:33N 35°22' E 139°51'0 0.0
2014-Jul-14 13:30N 35°22' E 139°51'0 0.0
2014-Jul-14 12:33N 35°22' E 139°51'2 2.1
2014-Jul-14 11:33N 35°23' E 139°49'0 0.1
2014-Jul-14 10:33N 35°23' E 139°49'0 0.0
2014-Jul-14 09:33N 35°23' E 139°49'0 0.0
2014-Jul-14 08:33N 35°23' E 139°49'0 0.0
2014-Jul-14 07:33N 35°23' E 139°49'0 0.0
2014-Jul-14 06:33N 35°23' E 139°49'0 0.0
2014-Jul-14 05:33N 35°23' E 139°49'0 0.0
2014-Jul-14 04:33N 35°23' E 139°49'0 0.0
2014-Jul-14 03:33N 35°23' E 139°49'0 0.0
2014-Jul-14 02:33N 35°23' E 139°49'0 0.0
2014-Jul-14 01:30N 35°23' E 139°49'0 0.0
2014-Jul-14 00:30N 35°23' E 139°49'0 0.0
2014-Jul-13 23:30N 35°23' E 139°49'0 0.0
2014-Jul-13 22:33N 35°23' E 139°49'0 0.0
2014-Jul-13 21:30N 35°23' E 139°49'0 0.0
2014-Jul-13 20:33N 35°23' E 139°49'0 0.0
2014-Jul-13 19:33N 35°23' E 139°49'0 0.0
2014-Jul-13 18:31N 35°23' E 139°49'0 0.0
2014-Jul-13 17:31N 35°23' E 139°49'0 0.0
2014-Jul-13 16:33N 35°23' E 139°49'  

Dump ship's entire track history